Terminal Aerodrome Forecast
Issued by NWS Wichita, KS

Home | Current Version | Previous Version | Text Only | Print | Product List | Glossary Off
Versions: 1 2 3 4 5 6 7 8 9 10 11 12 13 14 15 16 17 18 19 20 21 22

337
FTUS43 KICT 281739
TAFICT
TAF
KICT 281739Z 2818/2918 36010KT P6SM SCT100 BKN250
     FM282100 06006KT P6SM SCT250
     FM290500 07012KT P6SM VCSH SCT050 BKN090
     FM291400 08014KT P6SM VCSH SCT015 OVC030=

USA.gov is the U.S. government's official web portal to all federal, state and local government web resources and services.